sensor_id;sensor_type;location;lat;lon;timestamp;pressure;altitude;pressure_sealevel;temperature
70668;BMP280;58242;51.250;-1.118;2023-07-09T00:01:44;100425.09;;;24.30
70668;BMP280;58242;51.250;-1.118;2023-07-09T00:04:13;100432.50;;;24.29
70668;BMP280;58242;51.250;-1.118;2023-07-09T00:06:41;100429.81;;;24.26
70668;BMP280;58242;51.250;-1.118;2023-07-09T00:09:33;100435.34;;;24.19
70668;BMP280;58242;51.250;-1.118;2023-07-09T00:11:59;100431.81;;;24.18
70668;BMP280;58242;51.250;-1.118;2023-07-09T00:14:24;100427.56;;;24.14
70668;BMP280;58242;51.250;-1.118;2023-07-09T00:16:50;100416.66;;;24.11
70668;BMP280;58242;51.250;-1.118;2023-07-09T00:19:18;100423.34;;;24.06
70668;BMP280;58242;51.250;-1.118;2023-07-09T00:21:46;100422.25;;;24.01
70668;BMP280;58242;51.250;-1.118;2023-07-09T00:24:12;100417.59;;;23.94
70668;BMP280;58242;51.250;-1.118;2023-07-09T00:26:38;100427.75;;;23.87
70668;BMP280;58242;51.250;-1.118;2023-07-09T00:29:04;100442.25;;;23.81
70668;BMP280;58242;51.250;-1.118;2023-07-09T00:31:30;100439.97;;;23.72
70668;BMP280;58242;51.250;-1.118;2023-07-09T00:33:55;100440.78;;;23.66
70668;BMP280;58242;51.250;-1.118;2023-07-09T00:36:30;100438.88;;;23.60
70668;BMP280;58242;51.250;-1.118;2023-07-09T00:38:59;100440.09;;;23.52
70668;BMP280;58242;51.250;-1.118;2023-07-09T00:41:39;100434.66;;;23.45
70668;BMP280;58242;51.250;-1.118;2023-07-09T00:49:26;100430.88;;;23.26
70668;BMP280;58242;51.250;-1.118;2023-07-09T00:51:52;100435.56;;;23.18
70668;BMP280;58242;51.250;-1.118;2023-07-09T00:54:22;100430.94;;;23.12
70668;BMP280;58242;51.250;-1.118;2023-07-09T00:56:51;100427.81;;;23.07
70668;BMP280;58242;51.250;-1.118;2023-07-09T00:59:22;100436.44;;;23.02
70668;BMP280;58242;51.250;-1.118;2023-07-09T01:01:50;100439.19;;;22.95
70668;BMP280;58242;51.250;-1.118;2023-07-09T01:04:17;100443.09;;;22.91
70668;BMP280;58242;51.250;-1.118;2023-07-09T01:06:48;100443.13;;;22.84
70668;BMP280;58242;51.250;-1.118;2023-07-09T01:09:15;100447.81;;;22.80
70668;BMP280;58242;51.250;-1.118;2023-07-09T01:11:40;100446.25;;;22.76
70668;BMP280;58242;51.250;-1.118;2023-07-09T01:14:07;100449.00;;;22.72
70668;BMP280;58242;51.250;-1.118;2023-07-09T01:16:36;100446.69;;;22.67
70668;BMP280;58242;51.250;-1.118;2023-07-09T01:19:04;100449.41;;;22.61
70668;BMP280;58242;51.250;-1.118;2023-07-09T01:21:29;100456.81;;;22.57
70668;BMP280;58242;51.250;-1.118;2023-07-09T01:23:55;100451.75;;;22.52
70668;BMP280;58242;51.250;-1.118;2023-07-09T01:26:25;100450.59;;;22.49
70668;BMP280;58242;51.250;-1.118;2023-07-09T01:28:52;100457.56;;;22.44
70668;BMP280;58242;51.250;-1.118;2023-07-09T01:31:18;100462.25;;;22.40
70668;BMP280;58242;51.250;-1.118;2023-07-09T01:33:45;100458.75;;;22.36
70668;BMP280;58242;51.250;-1.118;2023-07-09T01:36:13;100456.81;;;22.33
70668;BMP280;58242;51.250;-1.118;2023-07-09T01:38:42;100456.03;;;22.29
70668;BMP280;58242;51.250;-1.118;2023-07-09T01:41:08;100459.16;;;22.14
70668;BMP280;58242;51.250;-1.118;2023-07-09T01:43:34;100459.94;;;22.18
70668;BMP280;58242;51.250;-1.118;2023-07-09T01:46:00;100461.88;;;22.17
70668;BMP280;58242;51.250;-1.118;2023-07-09T01:48:26;100468.91;;;22.15
70668;BMP280;58242;51.250;-1.118;2023-07-09T01:50:53;100473.94;;;22.13
70668;BMP280;58242;51.250;-1.118;2023-07-09T01:53:21;100474.72;;;22.10
70668;BMP280;58242;51.250;-1.118;2023-07-09T01:55:49;100470.84;;;22.08
70668;BMP280;58242;51.250;-1.118;2023-07-09T01:58:16;100473.94;;;22.06
70668;BMP280;58242;51.250;-1.118;2023-07-09T02:00:42;100478.59;;;22.06
70668;BMP280;58242;51.250;-1.118;2023-07-09T02:03:07;100473.56;;;22.04
70668;BMP280;58242;51.250;-1.118;2023-07-09T02:05:35;100476.28;;;22.04
70668;BMP280;58242;51.250;-1.118;2023-07-09T02:08:01;100476.28;;;22.04
70668;BMP280;58242;51.250;-1.118;2023-07-09T02:10:27;100478.22;;;22.04
70668;BMP280;58242;51.250;-1.118;2023-07-09T02:12:53;100475.88;;;22.06
70668;BMP280;58242;51.250;-1.118;2023-07-09T02:15:18;100482.09;;;22.06
70668;BMP280;58242;51.250;-1.118;2023-07-09T02:17:44;100488.34;;;22.07
70668;BMP280;58242;51.250;-1.118;2023-07-09T02:20:11;100495.72;;;22.10
70668;BMP280;58242;51.250;-1.118;2023-07-09T02:22:38;100494.56;;;22.14
70668;BMP280;58242;51.250;-1.118;2023-07-09T02:25:04;100488.75;;;22.19
70668;BMP280;58242;51.250;-1.118;2023-07-09T02:27:31;100481.34;;;22.23
70668;BMP280;58242;51.250;-1.118;2023-07-09T02:29:57;100482.91;;;22.27
70668;BMP280;58242;51.250;-1.118;2023-07-09T02:32:25;100478.25;;;22.31
70668;BMP280;58242;51.250;-1.118;2023-07-09T02:34:54;100462.66;;;22.35
70668;BMP280;58242;51.250;-1.118;2023-07-09T02:37:24;100449.41;;;22.40
70668;BMP280;58242;51.250;-1.118;2023-07-09T02:39:50;100450.97;;;22.45
70668;BMP280;58242;51.250;-1.118;2023-07-09T02:42:19;100465.75;;;22.47
70668;BMP280;58242;51.250;-1.118;2023-07-09T02:44:45;100447.06;;;22.49
70668;BMP280;58242;51.250;-1.118;2023-07-09T02:47:11;100450.94;;;22.51
70668;BMP280;58242;51.250;-1.118;2023-07-09T02:49:37;100442.44;;;22.53
70668;BMP280;58242;51.250;-1.118;2023-07-09T02:52:04;100444.34;;;22.56
70668;BMP280;58242;51.250;-1.118;2023-07-09T02:54:30;100442.00;;;22.58
70668;BMP280;58242;51.250;-1.118;2023-07-09T02:56:55;100444.34;;;22.59
70668;BMP280;58242;51.250;-1.118;2023-07-09T02:59:21;100448.22;;;22.62
70668;BMP280;58242;51.250;-1.118;2023-07-09T03:01:46;100455.25;;;22.63
70668;BMP280;58242;51.250;-1.118;2023-07-09T03:04:13;100445.13;;;22.63
70668;BMP280;58242;51.250;-1.118;2023-07-09T03:06:39;100442.78;;;22.62
70668;BMP280;58242;51.250;-1.118;2023-07-09T03:09:05;100446.69;;;22.61
70668;BMP280;58242;51.250;-1.118;2023-07-09T03:11:32;100457.63;;;22.54
70668;BMP280;58242;51.250;-1.118;2023-07-09T03:13:59;100467.31;;;22.48
70668;BMP280;58242;51.250;-1.118;2023-07-09T03:16:33;100460.31;;;22.40
70668;BMP280;58242;51.250;-1.118;2023-07-09T03:18:59;100456.81;;;22.36
70668;BMP280;58242;51.250;-1.118;2023-07-09T03:21:26;100473.56;;;22.35
70668;BMP280;58242;51.250;-1.118;2023-07-09T03:23:53;100465.78;;;22.33
70668;BMP280;58242;51.250;-1.118;2023-07-09T03:26:18;100466.94;;;22.32
70668;BMP280;58242;51.250;-1.118;2023-07-09T03:28:44;100478.59;;;22.33
70668;BMP280;58242;51.250;-1.118;2023-07-09T03:31:10;100474.72;;;22.34
70668;BMP280;58242;51.250;-1.118;2023-07-09T03:33:35;100474.31;;;22.35
70668;BMP280;58242;51.250;-1.118;2023-07-09T03:36:01;100467.72;;;22.36
70668;BMP280;58242;51.250;-1.118;2023-07-09T03:38:27;100472.78;;;22.38
70668;BMP280;58242;51.250;-1.118;2023-07-09T03:40:53;100476.66;;;22.40
70668;BMP280;58242;51.250;-1.118;2023-07-09T03:43:20;100476.28;;;22.42
70668;BMP280;58242;51.250;-1.118;2023-07-09T03:45:46;100475.88;;;22.43
70668;BMP280;58242;51.250;-1.118;2023-07-09T03:48:13;100475.88;;;22.43
70668;BMP280;58242;51.250;-1.118;2023-07-09T03:50:39;100468.47;;;22.44
70668;BMP280;58242;51.250;-1.118;2023-07-09T03:53:05;100463.03;;;22.44
70668;BMP280;58242;51.250;-1.118;2023-07-09T03:55:31;100465.75;;;22.44
70668;BMP280;58242;51.250;-1.118;2023-07-09T03:57:57;100471.19;;;22.44
70668;BMP280;58242;51.250;-1.118;2023-07-09T04:00:22;100448.63;;;22.43
70668;BMP280;58242;51.250;-1.118;2023-07-09T04:02:48;100462.25;;;22.43
70668;BMP280;58242;51.250;-1.118;2023-07-09T04:05:14;100469.63;;;22.43
70668;BMP280;58242;51.250;-1.118;2023-07-09T04:07:39;100482.50;;;22.42
70668;BMP280;58242;51.250;-1.118;2023-07-09T04:10:06;100470.81;;;22.42
70668;BMP280;58242;51.250;-1.118;2023-07-09T04:12:32;100465.38;;;22.42
70668;BMP280;58242;51.250;-1.118;2023-07-09T04:14:58;100468.88;;;22.42
70668;BMP280;58242;51.250;-1.118;2023-07-09T04:17:24;100474.72;;;22.41
70668;BMP280;58242;51.250;-1.118;2023-07-09T04:19:50;100471.63;;;22.42
70668;BMP280;58242;51.250;-1.118;2023-07-09T04:22:16;100483.66;;;22.41
70668;BMP280;58242;51.250;-1.118;2023-07-09T04:24:41;100476.28;;;22.42
70668;BMP280;58242;51.250;-1.118;2023-07-09T04:27:08;100481.31;;;22.43
70668;BMP280;58242;51.250;-1.118;2023-07-09T04:29:33;100479.78;;;22.42
70668;BMP280;58242;51.250;-1.118;2023-07-09T04:32:04;100487.53;;;22.44
70668;BMP280;58242;51.250;-1.118;2023-07-09T04:34:29;100497.66;;;22.43
70668;BMP280;58242;51.250;-1.118;2023-07-09T04:36:55;100485.97;;;22.43
70668;BMP280;58242;51.250;-1.118;2023-07-09T04:39:20;100497.66;;;22.43
70668;BMP280;58242;51.250;-1.118;2023-07-09T04:41:47;100496.88;;;22.43
70668;BMP280;58242;51.250;-1.118;2023-07-09T04:44:12;100516.75;;;22.43
70668;BMP280;58242;51.250;-1.118;2023-07-09T04:46:38;100514.00;;;22.43
70668;BMP280;58242;51.250;-1.118;2023-07-09T04:49:03;100512.06;;;22.44
70668;BMP280;58242;51.250;-1.118;2023-07-09T04:51:29;100512.84;;;22.44
70668;BMP280;58242;51.250;-1.118;2023-07-09T04:53:54;100517.13;;;22.45
70668;BMP280;58242;51.250;-1.118;2023-07-09T04:56:20;100512.06;;;22.47
70668;BMP280;58242;51.250;-1.118;2023-07-09T04:58:46;100517.91;;;22.49
70668;BMP280;58242;51.250;-1.118;2023-07-09T05:01:11;100514.03;;;22.50
70668;BMP280;58242;51.250;-1.118;2023-07-09T05:03:37;100511.72;;;22.52
70668;BMP280;58242;51.250;-1.118;2023-07-09T05:06:04;100515.59;;;22.54
70668;BMP280;58242;51.250;-1.118;2023-07-09T05:08:30;100521.81;;;22.58
70668;BMP280;58242;51.250;-1.118;2023-07-09T05:10:57;100520.28;;;22.61
70668;BMP280;58242;51.250;-1.118;2023-07-09T05:13:23;100522.59;;;22.62
70668;BMP280;58242;51.250;-1.118;2023-07-09T05:15:49;100523.38;;;22.66
70668;BMP280;58242;51.250;-1.118;2023-07-09T05:18:17;100514.44;;;22.69
70668;BMP280;58242;51.250;-1.118;2023-07-09T05:20:43;100512.06;;;22.71
70668;BMP280;58242;51.250;-1.118;2023-07-09T05:23:10;100508.56;;;22.74
70668;BMP280;58242;51.250;-1.118;2023-07-09T05:25:35;100508.97;;;22.76
70668;BMP280;58242;51.250;-1.118;2023-07-09T05:28:02;100499.22;;;22.78
70668;BMP280;58242;51.250;-1.118;2023-07-09T05:30:28;100517.50;;;22.81
70668;BMP280;58242;51.250;-1.118;2023-07-09T05:32:53;100497.66;;;22.84
70668;BMP280;58242;51.250;-1.118;2023-07-09T05:35:21;100501.13;;;22.88
70668;BMP280;58242;51.250;-1.118;2023-07-09T05:37:47;100503.09;;;22.91
70668;BMP280;58242;51.250;-1.118;2023-07-09T05:40:12;100507.75;;;22.94
70668;BMP280;58242;51.250;-1.118;2023-07-09T05:42:38;100518.63;;;22.97
70668;BMP280;58242;51.250;-1.118;2023-07-09T05:45:04;100525.25;;;22.99
70668;BMP280;58242;51.250;-1.118;2023-07-09T05:47:30;100524.84;;;23.04
70668;BMP280;58242;51.250;-1.118;2023-07-09T05:49:55;100543.94;;;23.08
70668;BMP280;58242;51.250;-1.118;2023-07-09T05:52:22;100543.91;;;23.11
70668;BMP280;58242;51.250;-1.118;2023-07-09T05:54:51;100543.91;;;23.14
70668;BMP280;58242;51.250;-1.118;2023-07-09T05:57:18;100566.13;;;23.16
70668;BMP280;58242;51.250;-1.118;2023-07-09T05:59:43;100543.53;;;23.23
70668;BMP280;58242;51.250;-1.118;2023-07-09T06:02:13;100538.44;;;23.32
70668;BMP280;58242;51.250;-1.118;2023-07-09T06:04:39;100536.06;;;23.37
70668;BMP280;58242;51.250;-1.118;2023-07-09T06:07:05;100545.78;;;23.41
70668;BMP280;58242;51.250;-1.118;2023-07-09T06:09:30;100552.44;;;23.44
70668;BMP280;58242;51.250;-1.118;2023-07-09T06:11:57;100554.75;;;23.45
70668;BMP280;58242;51.250;-1.118;2023-07-09T06:14:23;100551.63;;;23.47
70668;BMP280;58242;51.250;-1.118;2023-07-09T06:16:48;100538.78;;;23.47
70668;BMP280;58242;51.250;-1.118;2023-07-09T06:19:14;100539.56;;;23.48
70668;BMP280;58242;51.250;-1.118;2023-07-09T06:21:40;100549.66;;;23.50
70668;BMP280;58242;51.250;-1.118;2023-07-09T06:24:06;100550.81;;;23.53
70668;BMP280;58242;51.250;-1.118;2023-07-09T06:26:32;100536.38;;;23.56
70668;BMP280;58242;51.250;-1.118;2023-07-09T06:28:58;100545.72;;;23.62
70668;BMP280;58242;51.250;-1.118;2023-07-09T06:31:23;100542.97;;;23.65
70668;BMP280;58242;51.250;-1.118;2023-07-09T06:33:50;100544.88;;;23.71
70668;BMP280;58242;51.250;-1.118;2023-07-09T06:36:17;100546.03;;;23.77
70668;BMP280;58242;51.250;-1.118;2023-07-09T06:38:43;100560.03;;;23.79
70668;BMP280;58242;51.250;-1.118;2023-07-09T06:41:09;100548.72;;;23.81
70668;BMP280;58242;51.250;-1.118;2023-07-09T06:43:35;100535.44;;;23.83
70668;BMP280;58242;51.250;-1.118;2023-07-09T06:46:05;100544.03;;;23.84
70668;BMP280;58242;51.250;-1.118;2023-07-09T06:48:31;100553.38;;;23.87
70668;BMP280;58242;51.250;-1.118;2023-07-09T06:50:58;100580.31;;;23.92
70668;BMP280;58242;51.250;-1.118;2023-07-09T06:53:25;100584.56;;;23.96
70668;BMP280;58242;51.250;-1.118;2023-07-09T06:55:51;100589.22;;;24.02
70668;BMP280;58242;51.250;-1.118;2023-07-09T06:58:18;100586.44;;;24.09
70668;BMP280;58242;51.250;-1.118;2023-07-09T07:00:45;100612.16;;;24.15
70668;BMP280;58242;51.250;-1.118;2023-07-09T07:03:10;100623.47;;;24.17
70668;BMP280;58242;51.250;-1.118;2023-07-09T07:05:36;100633.22;;;24.18
70668;BMP280;58242;51.250;-1.118;2023-07-09T07:08:02;100642.19;;;24.18
70668;BMP280;58242;51.250;-1.118;2023-07-09T07:10:28;100637.91;;;24.17
70668;BMP280;58242;51.250;-1.118;2023-07-09T07:12:55;100624.63;;;24.16
70668;BMP280;58242;51.250;-1.118;2023-07-09T07:15:21;100615.28;;;24.17
70668;BMP280;58242;51.250;-1.118;2023-07-09T07:17:48;100604.72;;;24.19
70668;BMP280;58242;51.250;-1.118;2023-07-09T07:20:14;100594.97;;;24.18
70668;BMP280;58242;51.250;-1.118;2023-07-09T07:22:40;100595.38;;;24.17
70668;BMP280;58242;51.250;-1.118;2023-07-09T07:25:07;100599.69;;;24.14
70668;BMP280;58242;51.250;-1.118;2023-07-09T07:27:33;100594.59;;;24.13
70668;BMP280;58242;51.250;-1.118;2023-07-09T07:29:59;100579.81;;;24.10
70668;BMP280;58242;51.250;-1.118;2023-07-09T07:32:24;100559.53;;;24.08
70668;BMP280;58242;51.250;-1.118;2023-07-09T07:34:50;100552.13;;;24.05
70668;BMP280;58242;51.250;-1.118;2023-07-09T07:37:18;100552.91;;;24.02
70668;BMP280;58242;51.250;-1.118;2023-07-09T07:39:44;100566.59;;;23.99
70668;BMP280;58242;51.250;-1.118;2023-07-09T07:42:10;100560.38;;;23.95
70668;BMP280;58242;51.250;-1.118;2023-07-09T07:44:36;100566.25;;;23.93
70668;BMP280;58242;51.250;-1.118;2023-07-09T07:47:01;100554.94;;;23.91
70668;BMP280;58242;51.250;-1.118;2023-07-09T07:49:27;100556.09;;;23.87
70668;BMP280;58242;51.250;-1.118;2023-07-09T07:51:52;100564.69;;;23.82
70668;BMP280;58242;51.250;-1.118;2023-07-09T07:54:18;100582.28;;;23.81
70668;BMP280;58242;51.250;-1.118;2023-07-09T07:56:44;100592.03;;;23.85
70668;BMP280;58242;51.250;-1.118;2023-07-09T07:59:09;100580.69;;;23.87
70668;BMP280;58242;51.250;-1.118;2023-07-09T08:01:35;100588.50;;;23.92
70668;BMP280;58242;51.250;-1.118;2023-07-09T08:04:02;100590.06;;;23.93
70668;BMP280;58242;51.250;-1.118;2023-07-09T08:06:28;100579.91;;;23.93
70668;BMP280;58242;51.250;-1.118;2023-07-09T08:08:55;100554.59;;;23.89
70668;BMP280;58242;51.250;-1.118;2023-07-09T08:11:21;100551.06;;;23.85
70668;BMP280;58242;51.250;-1.118;2023-07-09T08:13:46;100585.00;;;23.84
70668;BMP280;58242;51.250;-1.118;2023-07-09T08:16:11;100611.91;;;23.83
70668;BMP280;58242;51.250;-1.118;2023-07-09T08:18:37;100594.75;;;23.79
70668;BMP280;58242;51.250;-1.118;2023-07-09T08:21:03;100583.09;;;23.78
70668;BMP280;58242;51.250;-1.118;2023-07-09T08:23:29;100611.94;;;23.79
70668;BMP280;58242;51.250;-1.118;2023-07-09T08:25:56;100627.53;;;23.79
70668;BMP280;58242;51.250;-1.118;2023-07-09T08:28:22;100608.03;;;23.80
70668;BMP280;58242;51.250;-1.118;2023-07-09T08:30:47;100597.47;;;23.82
70668;BMP280;58242;51.250;-1.118;2023-07-09T08:33:13;100585.78;;;23.85
70668;BMP280;58242;51.250;-1.118;2023-07-09T08:35:42;100588.88;;;23.90
70668;BMP280;58242;51.250;-1.118;2023-07-09T08:38:08;100588.84;;;23.97
70668;BMP280;58242;51.250;-1.118;2023-07-09T08:40:38;100583.34;;;24.04
70668;BMP280;58242;51.250;-1.118;2023-07-09T08:43:16;100570.78;;;24.17
70668;BMP280;58242;51.250;-1.118;2023-07-09T08:45:50;100561.69;;;24.33
70668;BMP280;58242;51.250;-1.118;2023-07-09T08:48:29;100559.97;;;24.56
70668;BMP280;58242;51.250;-1.118;2023-07-09T08:51:21;100568.31;;;24.82
70668;BMP280;58242;51.250;-1.118;2023-07-09T08:53:50;100585.66;;;25.08
70668;BMP280;58242;51.250;-1.118;2023-07-09T08:56:17;100581.09;;;25.34
70668;BMP280;58242;51.250;-1.118;2023-07-09T08:58:43;100581.63;;;25.55
70668;BMP280;58242;51.250;-1.118;2023-07-09T09:01:36;100585.28;;;25.74
70668;BMP280;58242;51.250;-1.118;2023-07-09T09:04:15;100583.53;;;25.90
70668;BMP280;58242;51.250;-1.118;2023-07-09T09:06:47;100591.16;;;26.06
70668;BMP280;58242;51.250;-1.118;2023-07-09T09:16:47;100597.31;;;26.42
70668;BMP280;58242;51.250;-1.118;2023-07-09T09:19:20;100597.25;;;26.45
70668;BMP280;58242;51.250;-1.118;2023-07-09T09:21:50;100602.34;;;26.43
70668;BMP280;58242;51.250;-1.118;2023-07-09T09:24:19;100600.06;;;26.42
70668;BMP280;58242;51.250;-1.118;2023-07-09T09:26:48;100606.22;;;26.46
70668;BMP280;58242;51.250;-1.118;2023-07-09T09:29:16;100602.63;;;26.52
70668;BMP280;58242;51.250;-1.118;2023-07-09T09:31:46;100602.50;;;26.59
70668;BMP280;58242;51.250;-1.118;2023-07-09T09:34:18;100596.13;;;26.65
70668;BMP280;58242;51.250;-1.118;2023-07-09T09:36:44;100601.91;;;26.71
70668;BMP280;58242;51.250;-1.118;2023-07-09T09:39:10;100589.50;;;26.85
70668;BMP280;58242;51.250;-1.118;2023-07-09T09:41:37;100588.19;;;27.15
70668;BMP280;58242;51.250;-1.118;2023-07-09T09:44:03;100597.66;;;27.52
70668;BMP280;58242;51.250;-1.118;2023-07-09T09:46:32;100592.63;;;27.89
70668;BMP280;58242;51.250;-1.118;2023-07-09T09:49:02;100604.31;;;28.27
70668;BMP280;58242;51.250;-1.118;2023-07-09T09:51:28;100609.72;;;28.81
70668;BMP280;58242;51.250;-1.118;2023-07-09T09:53:59;100602.31;;;29.52
70668;BMP280;58242;51.250;-1.118;2023-07-09T09:56:35;100611.66;;;30.22
70668;BMP280;58242;51.250;-1.118;2023-07-09T09:59:03;100612.78;;;30.49
70668;BMP280;58242;51.250;-1.118;2023-07-09T10:01:32;100620.25;;;30.73
70668;BMP280;58242;51.250;-1.118;2023-07-09T10:04:02;100622.47;;;31.47
70668;BMP280;58242;51.250;-1.118;2023-07-09T10:06:43;100615.06;;;32.07
70668;BMP280;58242;51.250;-1.118;2023-07-09T10:09:23;100612.03;;;32.43
70668;BMP280;58242;51.250;-1.118;2023-07-09T10:14:56;100609.16;;;32.94
70668;BMP280;58242;51.250;-1.118;2023-07-09T10:17:40;100616.41;;;33.00
70668;BMP280;58242;51.250;-1.118;2023-07-09T10:20:31;100607.47;;;32.96
70668;BMP280;58242;51.250;-1.118;2023-07-09T10:39:36;100590.25;;;33.71
70668;BMP280;58242;51.250;-1.118;2023-07-09T10:42:03;100593.41;;;34.13
70668;BMP280;58242;51.250;-1.118;2023-07-09T10:44:36;100598.34;;;34.58
70668;BMP280;58242;51.250;-1.118;2023-07-09T10:47:07;100604.44;;;35.03
70668;BMP280;58242;51.250;-1.118;2023-07-09T10:49:38;100602.50;;;35.17
70668;BMP280;58242;51.250;-1.118;2023-07-09T10:52:11;100603.16;;;35.35
70668;BMP280;58242;51.250;-1.118;2023-07-09T10:54:53;100603.03;;;35.30
70668;BMP280;58242;51.250;-1.118;2023-07-09T11:00:21;100596.47;;;34.96
70668;BMP280;58242;51.250;-1.118;2023-07-09T11:02:56;100613.94;;;35.19
70668;BMP280;58242;51.250;-1.118;2023-07-09T11:05:23;100605.63;;;35.33
70668;BMP280;58242;51.250;-1.118;2023-07-09T11:08:05;100601.16;;;35.50
70668;BMP280;58242;51.250;-1.118;2023-07-09T11:10:35;100601.50;;;35.66
70668;BMP280;58242;51.250;-1.118;2023-07-09T11:15:48;100601.34;;;37.07
70668;BMP280;58242;51.250;-1.118;2023-07-09T11:18:21;100616.53;;;37.64
70668;BMP280;58242;51.250;-1.118;2023-07-09T11:21:04;100618.44;;;37.97
70668;BMP280;58242;51.250;-1.118;2023-07-09T11:23:57;100606.63;;;38.37
70668;BMP280;58242;51.250;-1.118;2023-07-09T11:26:28;100614.88;;;38.52
70668;BMP280;58242;51.250;-1.118;2023-07-09T11:29:18;100601.19;;;38.59
70668;BMP280;58242;51.250;-1.118;2023-07-09T11:31:45;100589.34;;;38.69
70668;BMP280;58242;51.250;-1.118;2023-07-09T11:41:56;100588.69;;;41.29
70668;BMP280;58242;51.250;-1.118;2023-07-09T11:44:30;100584.28;;;41.49
70668;BMP280;58242;51.250;-1.118;2023-07-09T11:49:46;100587.72;;;41.65
70668;BMP280;58242;51.250;-1.118;2023-07-09T11:52:13;100586.25;;;41.54
70668;BMP280;58242;51.250;-1.118;2023-07-09T11:54:38;100583.03;;;41.39
70668;BMP280;58242;51.250;-1.118;2023-07-09T11:57:10;100592.91;;;41.01
70668;BMP280;58242;51.250;-1.118;2023-07-09T11:59:42;100598.56;;;40.63
70668;BMP280;58242;51.250;-1.118;2023-07-09T12:02:20;100592.22;;;40.26
70668;BMP280;58242;51.250;-1.118;2023-07-09T12:04:52;100589.13;;;40.13
70668;BMP280;58242;51.250;-1.118;2023-07-09T12:07:20;100595.16;;;39.69
70668;BMP280;58242;51.250;-1.118;2023-07-09T12:09:49;100584.56;;;39.21
70668;BMP280;58242;51.250;-1.118;2023-07-09T12:12:23;100581.50;;;38.73
70668;BMP280;58242;51.250;-1.118;2023-07-09T12:14:49;100586.50;;;38.34
70668;BMP280;58242;51.250;-1.118;2023-07-09T12:17:15;100589.97;;;38.18
70668;BMP280;58242;51.250;-1.118;2023-07-09T12:19:41;100580.50;;;38.16
70668;BMP280;58242;51.250;-1.118;2023-07-09T12:22:15;100587.38;;;38.45
70668;BMP280;58242;51.250;-1.118;2023-07-09T12:24:43;100593.09;;;39.02
70668;BMP280;58242;51.250;-1.118;2023-07-09T12:27:23;100589.25;;;38.99
70668;BMP280;58242;51.250;-1.118;2023-07-09T12:29:54;100587.19;;;38.53
70668;BMP280;58242;51.250;-1.118;2023-07-09T12:32:20;100603.44;;;38.19
70668;BMP280;58242;51.250;-1.118;2023-07-09T12:34:53;100595.53;;;37.93
70668;BMP280;58242;51.250;-1.118;2023-07-09T12:37:20;100587.38;;;37.65
70668;BMP280;58242;51.250;-1.118;2023-07-09T12:39:49;100587.09;;;37.24
70668;BMP280;58242;51.250;-1.118;2023-07-09T12:42:25;100590.50;;;37.09
70668;BMP280;58242;51.250;-1.118;2023-07-09T12:44:54;100584.28;;;36.99
70668;BMP280;58242;51.250;-1.118;2023-07-09T12:47:20;100587.88;;;37.05
70668;BMP280;58242;51.250;-1.118;2023-07-09T12:49:48;100583.59;;;37.04
70668;BMP280;58242;51.250;-1.118;2023-07-09T12:52:22;100582.03;;;37.03
70668;BMP280;58242;51.250;-1.118;2023-07-09T12:55:02;100583.22;;;37.16
70668;BMP280;58242;51.250;-1.118;2023-07-09T12:57:28;100580.28;;;37.06
70668;BMP280;58242;51.250;-1.118;2023-07-09T12:59:56;100584.78;;;36.84
70668;BMP280;58242;51.250;-1.118;2023-07-09T13:02:24;100582.47;;;36.97
70668;BMP280;58242;51.250;-1.118;2023-07-09T13:04:50;100581.50;;;37.63
70668;BMP280;58242;51.250;-1.118;2023-07-09T13:09:49;100575.31;;;39.77
70668;BMP280;58242;51.250;-1.118;2023-07-09T13:12:15;100567.75;;;40.31
70668;BMP280;58242;51.250;-1.118;2023-07-09T13:14:40;100570.28;;;40.13
70668;BMP280;58242;51.250;-1.118;2023-07-09T13:17:08;100573.28;;;39.67
70668;BMP280;58242;51.250;-1.118;2023-07-09T13:19:34;100567.25;;;39.12
70668;BMP280;58242;51.250;-1.118;2023-07-09T13:22:00;100569.25;;;38.65
70668;BMP280;58242;51.250;-1.118;2023-07-09T13:24:29;100571.09;;;38.79
70668;BMP280;58242;51.250;-1.118;2023-07-09T13:26:55;100567.75;;;38.70
70668;BMP280;58242;51.250;-1.118;2023-07-09T13:29:25;100559.16;;;38.43
70668;BMP280;58242;51.250;-1.118;2023-07-09T13:31:52;100557.38;;;38.40
70668;BMP280;58242;51.250;-1.118;2023-07-09T13:34:24;100552.09;;;38.53
70668;BMP280;58242;51.250;-1.118;2023-07-09T13:36:50;100554.59;;;38.10
70668;BMP280;58242;51.250;-1.118;2023-07-09T13:39:17;100552.47;;;38.30
70668;BMP280;58242;51.250;-1.118;2023-07-09T13:41:46;100539.81;;;38.70
70668;BMP280;58242;51.250;-1.118;2023-07-09T13:44:16;100543.31;;;38.59
70668;BMP280;58242;51.250;-1.118;2023-07-09T13:46:42;100531.09;;;38.27
70668;BMP280;58242;51.250;-1.118;2023-07-09T13:49:16;100536.16;;;38.23
70668;BMP280;58242;51.250;-1.118;2023-07-09T13:51:45;100528.63;;;38.75
70668;BMP280;58242;51.250;-1.118;2023-07-09T13:56:41;100528.25;;;40.08
70668;BMP280;58242;51.250;-1.118;2023-07-09T13:59:22;100535.09;;;40.50
70668;BMP280;58242;51.250;-1.118;2023-07-09T14:01:54;100526.69;;;40.44
70668;BMP280;58242;51.250;-1.118;2023-07-09T14:04:20;100523.91;;;40.44
70668;BMP280;58242;51.250;-1.118;2023-07-09T14:06:46;100527.16;;;40.75
70668;BMP280;58242;51.250;-1.118;2023-07-09T14:09:12;100529.38;;;41.03
70668;BMP280;58242;51.250;-1.118;2023-07-09T14:11:45;100536.41;;;41.26
70668;BMP280;58242;51.250;-1.118;2023-07-09T14:14:23;100539.66;;;41.40
70668;BMP280;58242;51.250;-1.118;2023-07-09T14:16:50;100525.25;;;41.15
70668;BMP280;58242;51.250;-1.118;2023-07-09T14:19:17;100543.00;;;40.51
70668;BMP280;58242;51.250;-1.118;2023-07-09T14:21:43;100531.31;;;39.99
70668;BMP280;58242;51.250;-1.118;2023-07-09T14:24:28;100527.22;;;40.11
70668;BMP280;58242;51.250;-1.118;2023-07-09T14:26:56;100529.03;;;40.35
70668;BMP280;58242;51.250;-1.118;2023-07-09T14:29:22;100518.56;;;40.20
70668;BMP280;58242;51.250;-1.118;2023-07-09T14:31:49;100514.50;;;40.05
70668;BMP280;58242;51.250;-1.118;2023-07-09T14:34:19;100514.50;;;39.99
70668;BMP280;58242;51.250;-1.118;2023-07-09T14:36:49;100524.94;;;39.93
70668;BMP280;58242;51.250;-1.118;2023-07-09T14:39:15;100527.72;;;39.77
70668;BMP280;58242;51.250;-1.118;2023-07-09T14:41:41;100522.09;;;39.56
70668;BMP280;58242;51.250;-1.118;2023-07-09T14:44:24;100503.16;;;39.24